createdAt,value
2019-02-14T00:00:19.749Z,90.62
2019-02-14T00:01:19.845Z,90.52
2019-02-14T00:02:19.726Z,90.48
2019-02-14T00:03:19.733Z,90.17
2019-02-14T00:04:19.703Z,90.48
2019-02-14T00:05:19.744Z,89.86
2019-02-14T00:06:19.683Z,89.54
2019-02-14T00:07:19.787Z,89.29
2019-02-14T00:08:19.663Z,89.29
2019-02-14T00:09:19.670Z,89.09
2019-02-14T00:10:19.639Z,89.23
2019-02-14T00:11:19.683Z,89.34
2019-02-14T00:12:19.635Z,89.34
2019-02-14T00:13:19.696Z,89.34
2019-02-14T00:14:19.597Z,89.86
2019-02-14T00:15:19.606Z,89.86
2019-02-14T00:16:19.574Z,89.65
2019-02-14T00:17:19.647Z,89.65
2019-02-14T00:18:19.553Z,89.09
2019-02-14T00:19:19.636Z,89.13
2019-02-14T00:20:19.536Z,88.67
2019-02-14T00:21:19.545Z,89.13
2019-02-14T00:22:19.524Z,89.19
2019-02-14T00:23:19.558Z,88.88
2019-02-14T00:24:19.487Z,88.78
2019-02-14T00:25:19.575Z,88.57
2019-02-14T00:26:19.467Z,88.57
2019-02-14T00:27:19.527Z,88.20
2019-02-14T00:28:19.443Z,88.71
2019-02-14T00:29:19.497Z,88.85
2019-02-14T00:30:19.422Z,89.37
2019-02-14T00:31:19.516Z,89.58
2019-02-14T00:32:19.420Z,89.89
2019-02-14T00:33:19.422Z,90.83
2019-02-14T00:34:19.379Z,90.52
2019-02-14T00:35:24.914Z,90.10
2019-02-14T00:36:20.360Z,90.45
2019-02-14T00:37:19.477Z,91.08
2019-02-14T00:38:19.347Z,90.66
2019-02-14T00:39:19.363Z,90.62
2019-02-14T00:40:19.314Z,90.56
2019-02-14T00:41:19.376Z,90.77
2019-02-14T00:42:19.312Z,90.77
2019-02-14T00:43:19.389Z,90.41
2019-02-14T00:44:19.283Z,90.35
2019-02-14T00:45:19.303Z,90.35
2019-02-14T00:46:19.249Z,90.45
2019-02-14T00:47:19.340Z,90.60
2019-02-14T00:48:19.229Z,90.81
2019-02-14T00:49:19.329Z,91.08
2019-02-14T00:50:19.213Z,90.66
2019-02-14T00:51:19.239Z,90.66
2019-02-14T00:52:19.198Z,90.60
2019-02-14T00:53:19.251Z,90.81
2019-02-14T00:54:19.169Z,91.22
2019-02-14T00:55:19.265Z,91.43
2019-02-14T00:56:19.148Z,91.43
2019-02-14T00:57:19.206Z,92.05
2019-02-14T00:58:19.121Z,91.28
2019-02-14T00:59:19.190Z,90.66
2019-02-14T01:00:19.098Z,90.25
2019-02-14T01:01:19.238Z,90.66
2019-02-14T01:02:19.105Z,89.62
2019-02-14T01:03:19.115Z,89.79
2019-02-14T01:04:19.061Z,89.37
2019-02-14T01:05:19.127Z,89.06
2019-02-14T01:06:19.034Z,88.96
2019-02-14T01:07:19.040Z,88.85
2019-02-14T01:08:19.084Z,88.54
2019-02-14T01:09:19.052Z,88.54
2019-02-14T01:10:18.991Z,89.06
2019-02-14T01:11:19.067Z,88.85
2019-02-14T01:12:18.968Z,88.44
2019-02-14T01:13:19.003Z,88.30
2019-02-14T01:14:18.948Z,88.40
2019-02-14T01:15:18.989Z,88.40
2019-02-14T01:16:18.924Z,88.20
2019-02-14T01:17:19.005Z,88.23
2019-02-14T01:18:18.921Z,88.02
2019-02-14T01:19:18.914Z,88.54
2019-02-14T01:20:18.882Z,88.34
2019-02-14T01:21:18.929Z,88.23
2019-02-14T01:22:18.862Z,88.44
2019-02-14T01:23:18.983Z,88.34
2019-02-14T01:24:18.842Z,88.44
2019-02-14T01:25:18.854Z,88.44
2019-02-14T01:26:18.819Z,87.99
2019-02-14T01:27:18.866Z,87.16
2019-02-14T01:28:18.810Z,87.47
2019-02-14T01:29:18.901Z,87.26
2019-02-14T01:30:18.777Z,88.20
2019-02-14T01:31:18.795Z,87.47
2019-02-14T01:32:18.752Z,87.16
2019-02-14T01:33:19.234Z,87.61
2019-02-14T01:34:18.733Z,87.30
2019-02-14T01:35:18.820Z,86.74
2019-02-14T01:36:18.714Z,87.47
2019-02-14T01:37:18.731Z,87.26
2019-02-14T01:38:18.702Z,87.37
2019-02-14T01:39:18.748Z,86.95
2019-02-14T01:40:18.669Z,87.05
2019-02-14T01:41:18.663Z,87.16
2019-02-14T01:42:18.659Z,87.19
2019-02-14T01:43:18.703Z,87.30
2019-02-14T01:44:18.624Z,87.61
2019-02-14T01:45:18.733Z,88.23
2019-02-14T01:46:18.602Z,88.34
2019-02-14T01:47:18.597Z,88.23
2019-02-14T01:48:18.600Z,87.92
2019-02-14T01:49:18.609Z,88.34
2019-02-14T01:50:18.558Z,88.34
2019-02-14T01:51:18.622Z,88.23
2019-02-14T01:52:18.545Z,88.34
2019-02-14T01:53:18.557Z,88.23
2019-02-14T01:54:18.520Z,88.34
2019-02-14T01:55:18.546Z,88.34
2019-02-14T01:56:18.499Z,88.34
2019-02-14T01:57:18.561Z,88.23
2019-02-14T01:58:18.491Z,88.34
2019-02-14T01:59:18.575Z,88.34
2019-02-14T02:00:18.461Z,88.23
2019-02-14T02:01:18.484Z,88.34
2019-02-14T02:02:18.431Z,88.34
2019-02-14T02:03:18.531Z,88.17
2019-02-14T02:04:18.416Z,88.44
2019-02-14T02:05:18.510Z,88.28
2019-02-14T02:06:18.387Z,88.28
2019-02-14T02:07:18.422Z,88.34
2019-02-14T02:08:18.379Z,88.17
2019-02-14T02:09:18.436Z,88.54
2019-02-14T02:10:18.349Z,88.17
2019-02-14T02:11:18.450Z,88.17
2019-02-14T02:12:18.323Z,88.28
2019-02-14T02:13:18.387Z,88.48
2019-02-14T02:14:18.301Z,88.94
2019-02-14T02:15:18.374Z,88.79
2019-02-14T02:16:18.280Z,89.15
2019-02-14T02:17:18.285Z,89.46
2019-02-14T02:18:18.292Z,89.25
2019-02-14T02:19:18.327Z,89.15
2019-02-14T02:20:18.236Z,89.67
2019-02-14T02:21:18.313Z,89.77
2019-02-14T02:22:18.217Z,89.56
2019-02-14T02:23:18.223Z,89.00
2019-02-14T02:24:18.214Z,88.94
2019-02-14T02:25:18.236Z,88.84
2019-02-14T02:26:18.174Z,88.94
2019-02-14T02:27:18.251Z,88.84
2019-02-14T02:28:18.153Z,89.46
2019-02-14T02:29:18.189Z,88.84
2019-02-14T02:30:18.130Z,88.84
2019-02-14T02:31:18.175Z,88.38
2019-02-14T02:32:18.110Z,88.52
2019-02-14T02:33:18.189Z,88.59
2019-02-14T02:34:18.103Z,88.52
2019-02-14T02:35:18.101Z,88.38
2019-02-14T02:36:18.068Z,88.48
2019-02-14T02:37:18.119Z,87.79
2019-02-14T02:38:18.045Z,88.21
2019-02-14T02:39:18.152Z,88.42
2019-02-14T02:40:18.026Z,88.42
2019-02-14T02:41:18.045Z,88.42
2019-02-14T02:42:18.006Z,88.94
2019-02-14T02:43:18.054Z,88.94
2019-02-14T02:44:17.995Z,89.29
2019-02-14T02:45:18.066Z,90.02
2019-02-14T02:46:17.965Z,89.92
2019-02-14T02:47:17.982Z,89.81
2019-02-14T02:48:17.947Z,89.81
2019-02-14T02:49:18.015Z,89.85
2019-02-14T02:50:17.921Z,89.70
2019-02-14T02:51:18.002Z,89.85
2019-02-14T02:52:17.917Z,90.26
2019-02-14T02:53:17.918Z,90.52
2019-02-14T02:54:17.902Z,90.93
2019-02-14T02:55:17.929Z,91.08
2019-02-14T02:56:17.854Z,91.18
2019-02-14T02:57:17.942Z,90.66
2019-02-14T02:58:17.838Z,91.53
2019-02-14T02:59:17.881Z,91.91
2019-02-14T03:00:17.812Z,92.37
2019-02-14T03:01:17.868Z,92.89
2019-02-14T03:02:17.789Z,92.27
2019-02-14T03:03:17.880Z,93.10
2019-02-14T03:04:17.789Z,93.04
2019-02-14T03:05:17.869Z,93.24
2019-02-14T03:06:17.751Z,93.66
2019-02-14T03:07:17.806Z,94.33
2019-02-14T03:08:17.726Z,94.02
2019-02-14T03:09:17.752Z,94.64
2019-02-14T03:10:17.711Z,94.33
2019-02-14T03:11:17.730Z,95.00
2019-02-14T03:12:17.684Z,95.06
2019-02-14T03:13:17.752Z,95.00
2019-02-14T03:14:17.690Z,95.62
2019-02-14T03:15:17.758Z,95.62
2019-02-14T03:16:17.644Z,95.52
2019-02-14T03:17:17.673Z,95.00
2019-02-14T03:18:17.619Z,95.73
2019-02-14T03:19:17.680Z,96.56
2019-02-14T03:20:17.609Z,95.52
2019-02-14T03:21:17.698Z,95.62
2019-02-14T03:22:17.580Z,95.00
2019-02-14T03:23:17.605Z,95.62
2019-02-14T03:24:17.553Z,95.67
2019-02-14T03:25:17.650Z,95.25
2019-02-14T03:26:17.538Z,95.67
2019-02-14T03:27:17.632Z,96.30
2019-02-14T03:28:17.520Z,96.40
2019-02-14T03:29:17.544Z,97.03
2019-02-14T03:30:17.509Z,97.24
2019-02-14T03:31:17.565Z,97.13
2019-02-14T03:32:17.473Z,98.28
2019-02-14T03:33:17.572Z,98.18
2019-02-14T03:34:17.448Z,97.55
2019-02-14T03:35:17.508Z,97.34
2019-02-14T03:36:19.383Z,97.65
2019-02-14T03:37:17.496Z,97.97
2019-02-14T03:38:17.404Z,97.97
2019-02-14T03:39:17.508Z,98.28
2019-02-14T03:40:17.404Z,97.44
2019-02-14T03:41:17.421Z,97.17
2019-02-14T03:42:17.364Z,97.38
2019-02-14T03:43:17.436Z,97.07
2019-02-14T03:44:17.339Z,98.01
2019-02-14T03:45:17.372Z,97.91
2019-02-14T03:46:17.322Z,97.91
2019-02-14T03:47:17.358Z,97.91
2019-02-14T03:48:17.297Z,98.22
2019-02-14T03:49:17.414Z,98.11
2019-02-14T03:50:17.289Z,98.16
2019-02-14T03:51:17.286Z,98.16
2019-02-14T03:52:17.258Z,97.27
2019-02-14T03:53:17.296Z,97.27
2019-02-14T03:54:17.233Z,97.37
2019-02-14T03:55:17.439Z,97.31
2019-02-14T03:56:17.212Z,96.78
2019-02-14T03:57:17.221Z,97.83
2019-02-14T03:58:17.215Z,97.94
2019-02-14T03:59:17.239Z,98.04
2019-02-14T04:00:17.182Z,98.04
2019-02-14T04:01:17.249Z,98.46
2019-02-14T04:02:17.148Z,98.52
2019-02-14T04:03:17.160Z,99.35
2019-02-14T04:04:17.131Z,99.51
2019-02-14T04:05:17.200Z,98.98
2019-02-14T04:06:17.106Z,99.19
2019-02-14T04:07:17.187Z,99.71
2019-02-14T04:08:17.089Z,99.61
2019-02-14T04:09:17.101Z,99.40
2019-02-14T04:10:17.078Z,99.40
2019-02-14T04:11:17.112Z,99.92
2019-02-14T04:12:17.042Z,99.99
2019-02-14T04:13:17.130Z,99.99
2019-02-14T04:14:17.026Z,99.99
2019-02-14T04:15:17.268Z,99.98
2019-02-14T04:16:16.999Z,99.99
2019-02-14T04:17:17.052Z,99.99
2019-02-14T04:18:16.978Z,99.99
2019-02-14T04:19:17.066Z,99.99
2019-02-14T04:20:16.962Z,99.99
2019-02-14T04:21:17.005Z,99.99
2019-02-14T04:22:16.939Z,99.99
2019-02-14T04:23:16.991Z,99.99
2019-02-14T04:24:16.916Z,99.99
2019-02-14T04:25:17.007Z,99.99
2019-02-14T04:26:16.907Z,99.99
2019-02-14T04:27:16.916Z,99.99
2019-02-14T04:28:16.877Z,99.99
2019-02-14T04:29:16.949Z,99.99
2019-02-14T04:30:16.854Z,99.99
2019-02-14T04:31:16.969Z,99.99
2019-02-14T04:32:16.837Z,99.99
2019-02-14T04:33:16.852Z,99.99
2019-02-14T04:34:16.808Z,99.99
2019-02-14T04:35:16.865Z,99.99
2019-02-14T04:36:16.809Z,99.99
2019-02-14T04:37:16.880Z,99.99
2019-02-14T04:38:16.767Z,99.99
2019-02-14T04:39:16.791Z,99.99
2019-02-14T04:40:16.746Z,99.89
2019-02-14T04:41:16.831Z,99.99
2019-02-14T04:42:16.725Z,99.89
2019-02-14T04:43:16.819Z,99.79
2019-02-14T04:44:16.711Z,99.68
2019-02-14T04:45:16.705Z,99.57
2019-02-14T04:46:16.702Z,99.37
2019-02-14T04:47:16.743Z,99.11
2019-02-14T04:48:16.660Z,99.37
2019-02-14T04:49:16.755Z,99.22
2019-02-14T04:50:16.653Z,98.85
2019-02-14T04:51:16.707Z,99.01
2019-02-14T04:52:16.620Z,98.95
2019-02-14T04:53:16.683Z,99.16
2019-02-14T04:54:16.603Z,98.85
2019-02-14T04:55:16.693Z,99.63
2019-02-14T04:56:16.588Z,99.47
2019-02-14T04:57:16.604Z,99.53
2019-02-14T04:58:16.553Z,99.01
2019-02-14T04:59:16.621Z,99.01
2019-02-14T05:00:16.535Z,99.11
2019-02-14T05:01:16.566Z,98.59
2019-02-14T05:02:16.511Z,98.49
2019-02-14T05:03:16.542Z,98.55
2019-02-14T05:04:16.495Z,98.34
2019-02-14T05:05:16.556Z,98.34
2019-02-14T05:06:16.481Z,97.71
2019-02-14T05:07:16.583Z,98.02
2019-02-14T05:08:16.446Z,97.92
2019-02-14T05:09:16.483Z,97.81
2019-02-14T05:10:16.425Z,98.18
2019-02-14T05:11:16.526Z,97.75
2019-02-14T05:12:16.402Z,98.18
2019-02-14T05:13:16.508Z,97.80
2019-02-14T05:14:16.381Z,98.01
2019-02-14T05:15:16.420Z,98.01
2019-02-14T05:16:16.414Z,97.80
2019-02-14T05:17:16.434Z,97.91
2019-02-14T05:18:16.340Z,98.22
2019-02-14T05:19:16.347Z,98.01
2019-02-14T05:20:16.319Z,98.53
2019-02-14T05:21:16.361Z,98.74
2019-02-14T05:22:16.314Z,98.74
2019-02-14T05:23:16.373Z,98.74
2019-02-14T05:24:16.286Z,99.16
2019-02-14T05:25:16.285Z,98.85
2019-02-14T05:26:16.256Z,99.16
2019-02-14T05:27:16.321Z,99.05
2019-02-14T05:28:16.275Z,99.16
2019-02-14T05:29:16.311Z,99.37
2019-02-14T05:30:16.210Z,99.11
2019-02-14T05:31:16.223Z,98.85
2019-02-14T05:32:16.207Z,98.85
2019-02-14T05:33:16.236Z,99.26
2019-02-14T05:34:16.168Z,98.95
2019-02-14T05:35:16.253Z,99.32
2019-02-14T05:36:16.171Z,98.75
2019-02-14T05:37:16.200Z,98.65
2019-02-14T05:38:16.162Z,98.39
2019-02-14T05:39:16.174Z,98.34
2019-02-14T05:40:16.105Z,97.98
2019-02-14T05:41:16.185Z,97.14
2019-02-14T05:42:16.101Z,96.73
2019-02-14T05:43:16.098Z,96.58
2019-02-14T05:44:16.067Z,96.42
2019-02-14T05:45:16.111Z,95.85
2019-02-14T05:46:16.040Z,95.43
2019-02-14T05:47:16.149Z,95.33
2019-02-14T05:48:16.023Z,95.02
2019-02-14T05:49:16.034Z,95.27
2019-02-14T05:50:15.997Z,94.85
2019-02-14T05:51:16.050Z,95.06
2019-02-14T05:52:15.988Z,95.27
2019-02-14T05:53:16.065Z,95.58
2019-02-14T05:54:15.961Z,95.27
2019-02-14T05:55:15.965Z,95.42
2019-02-14T05:56:15.933Z,95.06
2019-02-14T05:57:16.016Z,95.27
2019-02-14T05:58:15.911Z,94.75
2019-02-14T05:59:16.000Z,94.64
2019-02-14T06:00:15.894Z,94.54
2019-02-14T06:01:15.885Z,94.96
2019-02-14T06:02:15.903Z,94.64
2019-02-14T06:03:15.925Z,94.43
2019-02-14T06:04:15.848Z,94.64
2019-02-14T06:05:15.943Z,94.54
2019-02-14T06:06:15.832Z,94.96
2019-02-14T06:07:15.850Z,94.79
2019-02-14T06:08:15.819Z,94.54
2019-02-14T06:09:15.867Z,95.00
2019-02-14T06:10:15.784Z,95.17
2019-02-14T06:11:15.877Z,95.31
2019-02-14T06:12:15.769Z,95.62
2019-02-14T06:13:15.862Z,95.62
2019-02-14T06:14:15.744Z,95.62
2019-02-14T06:15:15.803Z,95.67
2019-02-14T06:16:15.723Z,95.56
2019-02-14T06:17:15.816Z,96.61
2019-02-14T06:18:15.717Z,96.30
2019-02-14T06:19:15.727Z,96.71
2019-02-14T06:20:15.678Z,96.82
2019-02-14T06:21:15.740Z,96.71
2019-02-14T06:22:15.662Z,96.66
2019-02-14T06:23:15.678Z,96.86
2019-02-14T06:24:15.633Z,96.97
2019-02-14T06:25:15.673Z,97.17
2019-02-14T06:26:15.619Z,97.28
2019-02-14T06:27:15.681Z,97.86
2019-02-14T06:28:15.608Z,97.75
2019-02-14T06:29:15.697Z,97.55
2019-02-14T06:30:15.574Z,97.86
2019-02-14T06:31:15.622Z,98.18
2019-02-14T06:32:15.551Z,97.86
2019-02-14T06:33:15.646Z,97.81
2019-02-14T06:34:15.535Z,97.71
2019-02-14T06:35:15.635Z,98.13
2019-02-14T06:36:15.505Z,98.02
2019-02-14T06:37:15.543Z,97.19
2019-02-14T06:38:15.506Z,96.83
2019-02-14T06:39:15.556Z,96.52
2019-02-14T06:40:15.466Z,96.21
2019-02-14T06:41:15.476Z,96.52
2019-02-14T06:42:15.447Z,96.52
2019-02-14T06:43:15.556Z,95.89
2019-02-14T06:44:15.424Z,95.68
2019-02-14T06:45:15.497Z,95.68
2019-02-14T06:46:15.401Z,95.17
2019-02-14T06:47:15.409Z,95.68
2019-02-14T06:48:15.414Z,94.96
2019-02-14T06:49:15.412Z,95.27
2019-02-14T06:50:15.362Z,95.48
2019-02-14T06:51:15.354Z,95.79
2019-02-14T06:52:15.337Z,95.21
2019-02-14T06:53:15.349Z,95.37
2019-02-14T06:54:15.313Z,95.37
2019-02-14T06:55:15.354Z,95.58
2019-02-14T06:56:15.293Z,95.58
2019-02-14T06:57:15.286Z,95.68
2019-02-14T06:58:15.285Z,95.12
2019-02-14T06:59:15.271Z,95.23
2019-02-14T07:00:15.261Z,95.33
2019-02-14T07:01:15.269Z,94.92
2019-02-14T07:02:15.230Z,94.60
2019-02-14T07:03:15.327Z,94.39
2019-02-14T07:04:15.213Z,94.14
2019-02-14T07:05:15.301Z,93.93
2019-02-14T07:06:15.186Z,94.24
2019-02-14T07:07:18.641Z,93.93
2019-02-14T07:08:15.164Z,93.83
2019-02-14T07:09:15.244Z,94.24
2019-02-14T07:10:15.143Z,94.49
2019-02-14T07:11:15.233Z,94.39
2019-02-14T07:12:15.126Z,94.60
2019-02-14T07:13:15.148Z,94.29
2019-02-14T07:14:15.119Z,94.29
2019-02-14T07:15:15.162Z,93.87
2019-02-14T07:16:15.081Z,94.29
2019-02-14T07:17:15.171Z,94.18
2019-02-14T07:18:15.058Z,94.18
2019-02-14T07:19:15.112Z,94.29
2019-02-14T07:20:15.040Z,93.93
2019-02-14T07:21:15.096Z,93.77
2019-02-14T07:22:15.016Z,94.18
2019-02-14T07:23:15.121Z,94.08
2019-02-14T07:24:15.008Z,94.04
2019-02-14T07:25:15.029Z,94.14
2019-02-14T07:26:14.980Z,94.56
2019-02-14T07:27:15.051Z,94.56
2019-02-14T07:28:14.958Z,93.52
2019-02-14T07:29:14.976Z,93.41
2019-02-14T07:30:14.931Z,93.52
2019-02-14T07:31:14.962Z,93.31
2019-02-14T07:32:14.908Z,93.31
2019-02-14T07:33:14.974Z,92.99
2019-02-14T07:34:14.904Z,93.41
2019-02-14T07:35:14.990Z,92.85
2019-02-14T07:36:14.866Z,92.68
2019-02-14T07:37:14.898Z,93.05
2019-02-14T07:38:14.845Z,92.99
2019-02-14T07:39:14.939Z,93.41
2019-02-14T07:40:14.827Z,93.05
2019-02-14T07:41:14.928Z,92.95
2019-02-14T07:42:14.803Z,93.05
2019-02-14T07:43:14.839Z,92.95
2019-02-14T07:44:14.794Z,93.05
2019-02-14T07:45:15.883Z,92.12
2019-02-14T07:46:22.371Z,91.91
2019-02-14T07:47:15.750Z,92.64
2019-02-14T07:48:14.745Z,92.29
2019-02-14T07:49:14.742Z,92.29
2019-02-14T07:50:21.238Z,91.87
2019-02-14T07:51:14.710Z,91.87
2019-02-14T07:52:15.722Z,91.77
2019-02-14T07:53:14.684Z,91.77
2019-02-14T07:54:14.733Z,91.46
2019-02-14T07:55:14.770Z,91.10
2019-02-14T07:56:14.728Z,90.93
2019-02-14T07:57:14.651Z,91.31
2019-02-14T07:58:14.751Z,90.79
2019-02-14T07:59:14.640Z,90.89
2019-02-14T08:00:14.673Z,91.00
2019-02-14T08:01:14.603Z,90.47
2019-02-14T08:02:14.670Z,90.37
2019-02-14T08:03:14.580Z,90.47
2019-02-14T08:04:14.679Z,90.54
2019-02-14T08:05:14.571Z,90.75
2019-02-14T08:06:14.596Z,89.92
2019-02-14T08:07:14.536Z,90.12
2019-02-14T08:08:14.608Z,90.16
2019-02-14T08:09:14.513Z,89.70
2019-02-14T08:10:14.540Z,89.29
2019-02-14T08:11:14.500Z,89.39
2019-02-14T08:12:14.528Z,89.70
2019-02-14T08:13:14.474Z,89.29
2019-02-14T08:14:14.542Z,88.98
2019-02-14T08:15:14.462Z,89.25
2019-02-14T08:16:14.454Z,88.62
2019-02-14T08:17:14.426Z,88.62
2019-02-14T08:18:14.477Z,88.52
2019-02-14T08:19:14.407Z,88.42
2019-02-14T08:20:14.414Z,88.21
2019-02-14T08:21:14.392Z,88.07
2019-02-14T08:22:14.403Z,88.28
2019-02-14T08:23:14.364Z,87.86
2019-02-14T08:24:14.414Z,87.45
2019-02-14T08:25:14.382Z,87.45
2019-02-14T08:26:14.419Z,87.03
2019-02-14T08:27:14.323Z,86.61
2019-02-14T08:28:14.331Z,86.93
2019-02-14T08:29:14.294Z,86.61
2019-02-14T08:30:14.344Z,87.30
2019-02-14T08:31:14.288Z,87.19
2019-02-14T08:32:14.369Z,86.78
2019-02-14T08:33:14.260Z,86.12
2019-02-14T08:34:14.277Z,85.91
2019-02-14T08:35:14.232Z,86.95
2019-02-14T08:36:15.338Z,86.22
2019-02-14T08:37:14.211Z,86.39
2019-02-14T08:38:14.322Z,86.43
2019-02-14T08:39:14.188Z,84.98
2019-02-14T08:40:14.213Z,85.19
2019-02-14T08:41:14.181Z,85.08
2019-02-14T08:42:14.222Z,86.18
2019-02-14T08:43:14.145Z,86.60
2019-02-14T08:44:14.237Z,85.35
2019-02-14T08:45:14.126Z,84.94
2019-02-14T08:46:14.176Z,84.48
2019-02-14T08:47:14.102Z,83.80
2019-02-14T08:48:14.164Z,83.97
2019-02-14T08:49:14.079Z,85.11
2019-02-14T08:50:14.176Z,84.28
2019-02-14T08:51:14.077Z,84.07
2019-02-14T08:52:14.086Z,83.51
2019-02-14T08:53:14.037Z,83.97
2019-02-14T08:54:14.108Z,83.97
2019-02-14T08:55:14.015Z,83.76
2019-02-14T08:56:14.035Z,83.65
2019-02-14T08:57:13.996Z,83.55
2019-02-14T08:58:14.024Z,83.00
2019-02-14T08:59:13.973Z,83.76
2019-02-14T09:00:14.038Z,84.28
2019-02-14T09:01:13.974Z,84.69
2019-02-14T09:02:14.048Z,84.59
2019-02-14T09:03:13.929Z,84.38
2019-02-14T09:04:13.968Z,84.73
2019-02-14T09:05:13.912Z,84.42
2019-02-14T09:06:14.004Z,84.38
2019-02-14T09:07:13.888Z,85.00
2019-02-14T09:08:13.890Z,85.00
2019-02-14T09:09:13.868Z,84.28
2019-02-14T09:10:13.909Z,85.21
2019-02-14T09:11:13.856Z,84.90
2019-02-14T09:12:13.915Z,85.25
2019-02-14T09:13:17.179Z,84.83
2019-02-14T09:14:13.826Z,84.52
2019-02-14T09:15:13.797Z,85.14
2019-02-14T09:16:13.869Z,84.31
2019-02-14T09:17:13.778Z,83.69
2019-02-14T09:18:14.882Z,84.21
2019-02-14T09:19:13.756Z,84.11
2019-02-14T09:20:21.756Z,84.28
2019-02-14T09:21:13.745Z,84.28
2019-02-14T09:22:13.780Z,83.97
2019-02-14T09:23:14.725Z,83.03
2019-02-14T09:24:13.794Z,82.72
2019-02-14T09:25:13.700Z,82.37
2019-02-14T09:26:13.732Z,82.17
2019-02-14T09:27:13.665Z,81.40
2019-02-14T09:28:13.718Z,80.54
2019-02-14T09:29:14.416Z,79.36
2019-02-14T09:30:13.735Z,78.74
2019-02-14T09:31:13.671Z,78.74
2019-02-14T09:32:13.648Z,78.22
2019-02-14T09:33:13.604Z,79.47
2019-02-14T09:34:13.656Z,77.91
2019-02-14T09:35:13.578Z,77.22
2019-02-14T09:36:13.695Z,74.98
2019-02-14T09:37:13.562Z,73.57
2019-02-14T09:38:13.580Z,72.27
2019-02-14T09:39:13.536Z,69.86
2019-02-14T09:40:13.593Z,68.57
2019-02-14T09:41:13.526Z,66.51
2019-02-14T09:42:13.535Z,67.00
2019-02-14T09:43:13.514Z,66.61
2019-02-14T09:44:13.521Z,65.69
2019-02-14T09:45:13.471Z,65.45
2019-02-14T09:46:13.532Z,66.20
2019-02-14T09:47:13.462Z,65.45
2019-02-14T09:48:13.558Z,65.63
2019-02-14T09:49:13.431Z,64.91
2019-02-14T09:50:13.462Z,65.91
2019-02-14T09:51:13.404Z,65.35
2019-02-14T09:52:13.501Z,64.95
2019-02-14T09:53:13.387Z,63.21
2019-02-14T09:54:13.484Z,64.03
2019-02-14T09:55:13.380Z,62.66
2019-02-14T09:56:13.394Z,61.44
2019-02-14T09:57:13.351Z,61.95
2019-02-14T09:58:13.408Z,62.87
2019-02-14T09:59:13.339Z,61.30
2019-02-14T10:00:13.329Z,61.25
2019-02-14T10:01:13.293Z,59.12
2019-02-14T10:02:13.361Z,59.27
2019-02-14T10:03:13.283Z,59.94
2019-02-14T10:04:14.386Z,60.89
2019-02-14T10:05:13.258Z,60.92
2019-02-14T10:06:13.259Z,61.74
2019-02-14T10:07:13.243Z,61.77
2019-02-14T10:08:15.339Z,61.44
2019-02-14T10:09:13.214Z,61.26
2019-02-14T10:10:15.231Z,61.44
2019-02-14T10:11:13.192Z,60.79
2019-02-14T10:12:13.235Z,60.97
2019-02-14T10:13:13.162Z,60.86
2019-02-14T10:14:13.210Z,59.20
2019-02-14T10:15:13.142Z,59.61
2019-02-14T10:16:13.227Z,59.71
2019-02-14T10:17:21.869Z,59.25
2019-02-14T10:18:14.110Z,59.41
2019-02-14T10:19:13.142Z,58.40
2019-02-14T10:20:13.087Z,58.91
2019-02-14T10:21:13.158Z,57.66
2019-02-14T10:22:13.161Z,57.73
2019-02-14T10:23:13.067Z,59.01
2019-02-14T10:24:13.044Z,57.66
2019-02-14T10:25:13.084Z,57.32
2019-02-14T10:26:13.024Z,57.09
2019-02-14T10:27:13.121Z,55.91
2019-02-14T10:28:13.001Z,55.91
2019-02-14T10:29:13.008Z,56.38
2019-02-14T10:30:12.976Z,56.43
2019-02-14T10:31:13.021Z,54.36
2019-02-14T10:32:12.953Z,54.08
2019-02-14T10:33:13.062Z,51.64
2019-02-14T10:34:12.940Z,53.31
2019-02-14T10:35:12.949Z,53.67
2019-02-14T10:36:12.912Z,53.16
2019-02-14T10:37:12.963Z,54.39
2019-02-14T10:38:21.738Z,53.47
2019-02-14T10:39:13.877Z,53.75
2019-02-14T10:40:12.980Z,52.50
2019-02-14T10:41:12.856Z,52.68
2019-02-14T10:42:12.893Z,50.90
2019-02-14T10:43:12.849Z,52.45
2019-02-14T10:44:12.906Z,53.67
2019-02-14T10:45:12.824Z,53.65
2019-02-14T10:46:12.926Z,51.28
2019-02-14T10:47:12.793Z,50.12
2019-02-14T10:48:14.902Z,51.84
2019-02-14T10:49:12.772Z,54.36
2019-02-14T10:50:12.845Z,53.44
2019-02-14T10:51:12.753Z,52.91
2019-02-14T10:52:12.761Z,51.99
2019-02-14T10:53:12.746Z,53.52
2019-02-14T10:54:12.767Z,52.98
2019-02-14T10:55:12.717Z,52.68
2019-02-14T10:56:14.729Z,53.78
2019-02-14T10:57:12.688Z,52.93
2019-02-14T10:58:12.719Z,54.28
2019-02-14T10:59:12.666Z,53.90
2019-02-14T11:00:12.706Z,52.15
2019-02-14T11:01:12.646Z,51.64
2019-02-14T11:02:12.752Z,52.45
2019-02-14T11:03:12.637Z,51.10
2019-02-14T11:04:12.632Z,49.65
2019-02-14T11:05:12.602Z,50.67
2019-02-14T11:06:12.649Z,49.40
2019-02-14T11:07:13.642Z,48.67
2019-02-14T11:08:12.687Z,48.94
2019-02-14T11:09:12.560Z,50.90
2019-02-14T11:10:12.569Z,49.22
2019-02-14T11:11:12.535Z,49.04
2019-02-14T11:12:12.637Z,48.96
2019-02-14T11:13:12.528Z,48.46
2019-02-14T11:14:12.508Z,49.21
2019-02-14T11:15:12.501Z,48.84
2019-02-14T11:16:12.512Z,48.08
2019-02-14T11:17:12.469Z,47.92
2019-02-14T11:18:12.549Z,48.13
2019-02-14T11:19:12.844Z,48.86
2019-02-14T11:20:12.537Z,48.33
2019-02-14T11:21:12.425Z,47.98
2019-02-14T11:22:12.450Z,46.92
2019-02-14T11:23:12.421Z,47.05
2019-02-14T11:24:12.464Z,47.58
2019-02-14T11:25:12.383Z,48.11
2019-02-14T11:26:12.477Z,47.21
2019-02-14T11:27:12.358Z,47.19
2019-02-14T11:28:12.416Z,47.98
2019-02-14T11:29:12.337Z,47.37
2019-02-14T11:30:12.401Z,46.23
2019-02-14T11:31:12.318Z,46.59
2019-02-14T11:32:12.415Z,44.87
2019-02-14T11:33:12.294Z,46.13
2019-02-14T11:34:12.305Z,47.19
2019-02-14T11:35:12.274Z,47.01
2019-02-14T11:36:21.350Z,46.58
2019-02-14T11:37:12.250Z,46.97
2019-02-14T11:38:12.385Z,46.94
2019-02-14T11:39:12.256Z,47.05
2019-02-14T11:40:12.263Z,47.66
2019-02-14T11:41:12.208Z,46.33
2019-02-14T11:42:12.283Z,44.68
2019-02-14T11:43:12.188Z,45.29
2019-02-14T11:44:12.215Z,44.85
2019-02-14T11:45:12.168Z,44.89
2019-02-14T11:46:12.225Z,45.09
2019-02-14T11:47:12.167Z,43.53
2019-02-14T11:48:12.216Z,42.47
2019-02-14T11:49:12.140Z,42.68
2019-02-14T11:50:12.231Z,42.25
2019-02-14T11:51:12.146Z,41.85
2019-02-14T11:52:12.194Z,42.49
2019-02-14T11:53:14.191Z,43.00
2019-02-14T11:54:13.104Z,41.88
2019-02-14T11:55:12.114Z,41.64
2019-02-14T11:56:12.254Z,41.50
2019-02-14T11:57:12.103Z,41.93
2019-02-14T11:58:12.448Z,42.05
2019-02-14T11:59:12.146Z,42.74
2019-02-14T12:00:12.116Z,42.72
2019-02-14T12:01:12.057Z,41.22
2019-02-14T12:02:12.074Z,41.66
2019-02-14T12:03:12.139Z,41.34
2019-02-14T12:04:12.240Z,41.80
2019-02-14T12:05:12.000Z,41.77
2019-02-14T12:06:17.337Z,41.34
2019-02-14T12:07:12.927Z,41.50
2019-02-14T12:08:12.064Z,40.11
2019-02-14T12:09:11.984Z,39.28
2019-02-14T12:10:13.927Z,38.70
2019-02-14T12:11:11.981Z,38.21
2019-02-14T12:12:12.072Z,40.17
2019-02-14T12:13:11.892Z,39.98
2019-02-14T12:14:12.035Z,40.55
2019-02-14T12:15:11.867Z,38.19
2019-02-14T12:16:12.016Z,37.08
2019-02-14T12:17:11.880Z,36.71
2019-02-14T12:18:11.961Z,36.00
2019-02-14T12:19:11.943Z,35.83
2019-02-14T12:20:12.934Z,36.68
2019-02-14T12:21:11.838Z,38.60
2019-02-14T12:22:12.891Z,39.64
2019-02-14T12:23:12.043Z,38.62
2019-02-14T12:24:11.949Z,39.96
2019-02-14T12:25:11.830Z,40.53
2019-02-14T12:26:12.789Z,39.68
2019-02-14T12:27:11.780Z,36.87
2019-02-14T12:28:11.794Z,38.20
2019-02-14T12:29:12.025Z,38.48
2019-02-14T12:30:12.089Z,37.27
2019-02-14T12:31:11.749Z,35.73
2019-02-14T12:32:11.761Z,36.78
2019-02-14T12:33:11.721Z,36.19
2019-02-14T12:34:11.825Z,37.40
2019-02-14T12:35:11.678Z,37.99
2019-02-14T12:36:11.764Z,37.98
2019-02-14T12:37:11.623Z,39.39
2019-02-14T12:38:11.657Z,37.77
2019-02-14T12:39:11.814Z,36.46
2019-02-14T12:40:11.701Z,36.94
2019-02-14T12:41:11.573Z,35.73
2019-02-14T12:42:11.671Z,35.78
2019-02-14T12:43:11.561Z,34.47
2019-02-14T12:44:11.583Z,34.52
2019-02-14T12:45:20.079Z,35.35
2019-02-14T12:46:12.517Z,37.18
2019-02-14T12:47:11.603Z,37.71
2019-02-14T12:48:11.505Z,37.16
2019-02-14T12:49:11.522Z,36.85
2019-02-14T12:50:11.494Z,37.25
2019-02-14T12:51:11.532Z,36.02
2019-02-14T12:52:11.471Z,34.48